createdAt,value
2019-02-28T00:00:58.509Z,46.50
2019-02-28T00:03:27.285Z,46.40
2019-02-28T00:05:55.665Z,46.50
2019-02-28T00:08:23.914Z,46.70
2019-02-28T00:10:52.171Z,46.60
2019-02-28T00:13:21.702Z,46.80
2019-02-28T00:15:50.445Z,46.70
2019-02-28T00:18:20.012Z,46.80
2019-02-28T00:20:48.309Z,46.80
2019-02-28T00:23:19.260Z,46.80
2019-02-28T00:25:48.261Z,46.80
2019-02-28T00:28:16.496Z,46.80
2019-02-28T00:30:44.793Z,47.00
2019-02-28T00:33:13.030Z,47.10
2019-02-28T00:35:44.583Z,47.10
2019-02-28T00:38:11.588Z,47.20
2019-02-28T00:40:39.839Z,47.30
2019-02-28T00:43:08.132Z,47.40
2019-02-28T00:45:37.325Z,47.50
2019-02-28T00:48:05.678Z,47.40
2019-02-28T00:50:33.918Z,47.40
2019-02-28T00:53:02.165Z,47.40
2019-02-28T00:55:30.460Z,47.60
2019-02-28T00:57:58.717Z,47.60
2019-02-28T01:00:26.973Z,47.50
2019-02-28T01:02:55.226Z,47.70
2019-02-28T01:05:23.470Z,47.70
2019-02-28T01:07:51.752Z,47.70
2019-02-28T01:10:20.080Z,47.80
2019-02-28T01:12:53.270Z,47.80
2019-02-28T01:15:18.422Z,47.90
2019-02-28T01:17:46.763Z,47.90
2019-02-28T01:20:16.488Z,48.00
2019-02-28T01:22:45.353Z,47.90
2019-02-28T01:25:15.241Z,47.90
2019-02-28T01:27:43.561Z,48.00
2019-02-28T01:30:13.345Z,47.90
2019-02-28T01:32:41.586Z,47.90
2019-02-28T01:35:09.942Z,48.00
2019-02-28T01:37:38.205Z,48.10
2019-02-28T01:40:08.871Z,48.00
2019-02-28T01:42:37.129Z,48.20
2019-02-28T01:45:09.978Z,48.10
2019-02-28T01:47:38.458Z,48.30
2019-02-28T01:50:08.339Z,48.30
2019-02-28T01:52:36.830Z,48.30
2019-02-28T01:55:06.523Z,48.30
2019-02-28T01:57:36.408Z,48.40
2019-02-28T02:00:19.177Z,48.50
2019-02-28T02:02:47.414Z,49.50
2019-02-28T02:05:16.856Z,49.40
2019-02-28T02:07:45.693Z,49.60
2019-02-28T02:10:21.681Z,49.50
2019-02-28T02:12:51.308Z,50.00
2019-02-28T02:15:20.047Z,49.70
2019-02-28T02:17:48.277Z,49.80
2019-02-28T02:20:17.003Z,49.80
2019-02-28T02:22:47.117Z,50.00
2019-02-28T02:25:15.409Z,50.00
2019-02-28T02:27:43.647Z,50.30
2019-02-28T02:30:15.930Z,50.30
2019-02-28T02:32:44.446Z,50.40
2019-02-28T02:35:12.719Z,50.40
2019-02-28T02:37:40.973Z,50.50
2019-02-28T02:40:14.404Z,50.50
2019-02-28T02:42:47.625Z,50.60
2019-02-28T02:45:14.370Z,50.60
2019-02-28T02:47:43.173Z,50.60
2019-02-28T02:50:13.346Z,50.80
2019-02-28T02:52:41.650Z,50.90
2019-02-28T02:55:09.875Z,50.90
2019-02-28T02:57:38.314Z,51.90
2019-02-28T03:00:17.543Z,51.10
2019-02-28T03:02:45.858Z,51.30
2019-02-28T03:05:14.369Z,51.10
2019-02-28T03:07:42.701Z,51.00
2019-02-28T03:10:17.322Z,51.10
2019-02-28T03:12:43.233Z,51.10
2019-02-28T03:15:15.539Z,51.10
2019-02-28T03:17:47.278Z,51.90
2019-02-28T03:20:14.092Z,51.20
2019-02-28T03:22:44.773Z,51.20
2019-02-28T03:25:15.414Z,51.20
2019-02-28T03:27:43.716Z,51.20
2019-02-28T03:30:25.800Z,51.30
2019-02-28T03:32:44.962Z,51.30
2019-02-28T03:35:13.230Z,51.30
2019-02-28T03:37:41.513Z,51.30
2019-02-28T03:40:11.389Z,51.40
2019-02-28T03:42:39.637Z,51.40
2019-02-28T03:45:10.149Z,51.60
2019-02-28T03:47:38.373Z,51.70
2019-02-28T03:50:08.013Z,51.80
2019-02-28T03:52:41.692Z,51.80
2019-02-28T03:55:08.506Z,52.40
2019-02-28T03:57:36.745Z,52.40
2019-02-28T04:00:13.738Z,51.80
2019-02-28T04:02:41.964Z,51.90
2019-02-28T04:05:10.251Z,52.00
2019-02-28T04:07:38.708Z,52.10
2019-02-28T04:10:09.486Z,52.10
2019-02-28T04:12:44.985Z,52.10
2019-02-28T04:15:11.313Z,52.30
2019-02-28T04:17:39.713Z,52.10
2019-02-28T04:20:08.217Z,52.10
2019-02-28T04:22:36.638Z,52.20
2019-02-28T04:25:06.935Z,52.20
2019-02-28T04:27:35.183Z,52.20
2019-02-28T04:30:07.954Z,52.20
2019-02-28T04:32:34.291Z,52.30
2019-02-28T04:35:02.629Z,52.30
2019-02-28T04:37:30.930Z,52.20
2019-02-28T04:39:59.194Z,52.30
2019-02-28T04:42:27.492Z,52.40
2019-02-28T04:44:55.943Z,52.20
2019-02-28T04:47:24.299Z,52.30
2019-02-28T04:49:53.501Z,52.30
2019-02-28T04:52:22.925Z,52.40
2019-02-28T04:54:51.166Z,52.50
2019-02-28T04:57:20.717Z,52.50
2019-02-28T04:59:49.520Z,52.50
2019-02-28T05:02:20.056Z,52.50
2019-02-28T05:04:47.765Z,52.50
2019-02-28T05:07:16.030Z,52.60
2019-02-28T05:09:45.299Z,52.50
2019-02-28T05:12:14.435Z,52.60
2019-02-28T05:14:42.681Z,52.70
2019-02-28T05:17:10.940Z,52.60
2019-02-28T05:19:39.165Z,52.70
2019-02-28T05:22:07.433Z,52.70
2019-02-28T05:24:35.674Z,52.70
2019-02-28T05:27:03.929Z,52.70
2019-02-28T05:29:32.270Z,52.90
2019-02-28T05:32:00.956Z,53.00
2019-02-28T05:34:30.078Z,53.00
2019-02-28T05:36:58.332Z,53.00
2019-02-28T05:39:28.245Z,53.10
2019-02-28T05:41:56.572Z,53.20
2019-02-28T05:44:24.813Z,53.40
2019-02-28T05:46:57.608Z,53.50
2019-02-28T05:49:23.237Z,53.50
2019-02-28T05:51:51.577Z,53.50
2019-02-28T05:54:19.864Z,53.40
2019-02-28T05:56:51.143Z,53.60
2019-02-28T05:59:19.395Z,53.90
2019-02-28T06:01:49.309Z,53.70
2019-02-28T06:04:17.575Z,53.90
2019-02-28T06:06:45.882Z,53.90
2019-02-28T06:09:14.814Z,54.00
2019-02-28T06:11:43.951Z,53.90
2019-02-28T06:14:12.409Z,54.00
2019-02-28T06:16:46.365Z,54.00
2019-02-28T06:19:10.658Z,54.00
2019-02-28T06:21:38.937Z,54.10
2019-02-28T06:24:07.155Z,54.10
2019-02-28T06:26:35.492Z,54.20
2019-02-28T06:29:05.134Z,54.20
2019-02-28T06:31:34.498Z,54.20
2019-02-28T06:34:05.621Z,54.30
2019-02-28T06:36:32.940Z,54.40
2019-02-28T06:39:01.200Z,54.30
2019-02-28T06:41:29.444Z,55.00
2019-02-28T06:43:59.500Z,54.40
2019-02-28T06:46:27.741Z,54.40
2019-02-28T06:49:01.491Z,54.60
2019-02-28T06:51:26.275Z,54.60
2019-02-28T06:53:54.505Z,54.80
2019-02-28T06:56:23.222Z,54.70
2019-02-28T06:58:51.812Z,54.90
2019-02-28T07:01:22.744Z,54.90
2019-02-28T07:03:53.503Z,55.00
2019-02-28T07:06:20.142Z,55.00
2019-02-28T07:08:48.445Z,55.00
2019-02-28T07:11:19.861Z,55.10
2019-02-28T07:13:46.701Z,55.00
2019-02-28T07:16:14.935Z,55.30
2019-02-28T07:18:44.809Z,55.30
2019-02-28T07:21:13.212Z,55.40
2019-02-28T07:23:41.528Z,55.50
2019-02-28T07:26:09.779Z,55.50
2019-02-28T07:28:38.050Z,55.80
2019-02-28T07:31:06.358Z,55.60
2019-02-28T07:33:34.592Z,55.60
2019-02-28T07:36:05.568Z,55.70
2019-02-28T07:38:34.442Z,55.70
2019-02-28T07:41:02.673Z,55.90
2019-02-28T07:43:30.930Z,56.00
2019-02-28T07:46:00.812Z,55.90
2019-02-28T07:48:30.089Z,56.00
2019-02-28T07:50:59.248Z,55.90
2019-02-28T07:53:27.724Z,55.90
2019-02-28T07:55:56.037Z,55.10
2019-02-28T07:58:26.573Z,55.20
2019-02-28T08:00:55.807Z,55.30
2019-02-28T08:03:27.373Z,55.40
2019-02-28T08:05:55.627Z,55.40
2019-02-28T08:08:26.336Z,55.30
2019-02-28T08:10:54.066Z,55.10
2019-02-28T08:23:48.730Z,55.20
2019-02-28T08:26:18.823Z,55.00
2019-02-28T08:28:48.591Z,55.20
2019-02-28T08:31:16.837Z,55.20
2019-02-28T08:33:48.178Z,55.20
2019-02-28T08:36:16.768Z,55.40
2019-02-28T08:38:45.059Z,55.30
2019-02-28T08:41:13.297Z,55.10
2019-02-28T08:43:44.598Z,55.40
2019-02-28T08:46:13.719Z,55.50
2019-02-28T08:48:42.000Z,55.70
2019-02-28T08:51:10.241Z,55.80
2019-02-28T08:53:40.449Z,55.80
2019-02-28T08:56:11.015Z,55.70
2019-02-28T08:58:38.657Z,55.80
2019-02-28T09:01:07.485Z,55.70
2019-02-28T09:03:35.729Z,55.60
2019-02-28T09:06:07.151Z,55.50
2019-02-28T09:08:33.956Z,55.40
2019-02-28T09:11:02.184Z,55.60
2019-02-28T09:13:30.412Z,55.40
2019-02-28T09:15:58.769Z,55.50
2019-02-28T09:18:27.033Z,55.60
2019-02-28T09:20:55.324Z,55.80
2019-02-28T09:23:23.695Z,55.60
2019-02-28T09:25:53.343Z,55.70
2019-02-28T09:28:22.021Z,55.50
2019-02-28T09:30:55.510Z,55.40
2019-02-28T09:33:24.041Z,55.40
2019-02-28T09:35:52.314Z,55.30
2019-02-28T09:38:22.209Z,55.30
2019-02-28T09:40:50.446Z,55.10
2019-02-28T09:43:18.686Z,54.90
2019-02-28T09:45:47.213Z,54.60
2019-02-28T09:48:15.490Z,54.50
2019-02-28T09:50:43.726Z,54.50
2019-02-28T09:53:15.549Z,54.50
2019-02-28T09:55:42.082Z,54.50
2019-02-28T09:58:10.334Z,54.70
2019-02-28T10:00:38.667Z,54.70
2019-02-28T10:03:07.824Z,54.80
2019-02-28T10:05:38.833Z,54.80
2019-02-28T10:08:08.837Z,54.70
2019-02-28T10:10:37.137Z,54.90
2019-02-28T10:13:06.303Z,54.80
2019-02-28T10:15:34.642Z,54.80
2019-02-28T10:18:04.361Z,54.80
2019-02-28T10:20:38.126Z,54.70
2019-02-28T10:23:07.309Z,54.60
2019-02-28T10:25:40.088Z,54.50
2019-02-28T10:28:05.529Z,54.40
2019-02-28T10:30:33.848Z,54.20
2019-02-28T10:33:02.085Z,54.20
2019-02-28T10:35:30.336Z,54.20
2019-02-28T10:38:00.305Z,54.30
2019-02-28T10:40:29.676Z,54.30
2019-02-28T10:42:57.933Z,54.30
2019-02-28T10:45:26.667Z,54.30
2019-02-28T10:47:55.181Z,54.30
2019-02-28T10:50:33.276Z,54.10
2019-02-28T10:53:03.997Z,54.20
2019-02-28T10:55:30.968Z,54.30
2019-02-28T10:57:59.205Z,54.50
2019-02-28T11:00:33.668Z,54.50
2019-02-28T11:03:02.414Z,54.60
2019-02-28T11:05:35.359Z,54.50
2019-02-28T11:08:04.533Z,54.60
2019-02-28T11:10:40.905Z,54.60
2019-02-28T11:13:18.171Z,54.50
2019-02-28T11:15:48.405Z,54.40
2019-02-28T11:18:16.481Z,54.30
2019-02-28T11:20:52.643Z,54.10
2019-02-28T11:23:21.518Z,53.80
2019-02-28T11:25:49.750Z,53.50
2019-02-28T11:28:18.085Z,53.50
2019-02-28T11:30:46.770Z,53.60
2019-02-28T11:33:16.158Z,53.80
2019-02-28T11:35:45.112Z,53.80
2019-02-28T11:38:13.389Z,53.80
2019-02-28T11:40:43.914Z,53.80
2019-02-28T11:43:11.772Z,53.20
2019-02-28T11:45:43.545Z,52.80
2019-02-28T11:48:23.546Z,52.70
2019-02-28T11:50:51.794Z,52.60
2019-02-28T11:53:20.110Z,52.40
2019-02-28T11:55:48.419Z,52.10
2019-02-28T11:58:17.953Z,52.10
2019-02-28T12:00:46.507Z,52.20
2019-02-28T12:03:14.761Z,52.00
2019-02-28T12:05:43.009Z,52.00
2019-02-28T12:08:12.900Z,52.00
2019-02-28T12:10:41.159Z,51.40
2019-02-28T12:13:09.412Z,51.30
2019-02-28T12:15:39.498Z,51.30
2019-02-28T12:18:07.764Z,50.90
2019-02-28T12:20:37.088Z,51.50
2019-02-28T12:23:05.365Z,51.00
2019-02-28T12:25:33.975Z,50.40
2019-02-28T12:28:04.734Z,50.20
2019-02-28T12:30:33.255Z,49.40
2019-02-28T12:33:01.582Z,49.20
2019-02-28T12:35:29.897Z,48.90
2019-02-28T12:37:58.150Z,48.80
2019-02-28T12:40:32.542Z,48.80
2019-02-28T12:43:01.113Z,49.00
2019-02-28T12:45:34.453Z,49.50
2019-02-28T12:48:03.022Z,49.70
2019-02-28T12:50:31.430Z,49.90
2019-02-28T12:52:59.681Z,49.90
2019-02-28T12:55:27.962Z,50.40
2019-02-28T12:57:57.927Z,50.60
2019-02-28T13:00:38.510Z,50.80
2019-02-28T13:03:08.984Z,51.00
2019-02-28T13:05:36.802Z,51.00
2019-02-28T13:08:06.030Z,51.20
2019-02-28T13:10:38.187Z,51.20
2019-02-28T13:13:07.800Z,51.20
2019-02-28T13:15:36.338Z,51.10
2019-02-28T13:18:09.158Z,51.30
2019-02-28T13:20:36.981Z,51.10
2019-02-28T13:23:07.013Z,51.10
2019-02-28T13:25:35.380Z,51.20
2019-02-28T13:28:03.624Z,51.30
2019-02-28T13:30:31.874Z,51.50
2019-02-28T13:33:00.112Z,51.60
2019-02-28T13:35:45.710Z,51.70
2019-02-28T13:38:09.619Z,51.80
2019-02-28T13:40:40.853Z,51.80
2019-02-28T13:43:07.917Z,51.80
2019-02-28T13:45:36.210Z,52.00
2019-02-28T13:48:04.514Z,52.10
2019-02-28T13:50:36.077Z,52.20
2019-02-28T13:53:17.491Z,52.20
2019-02-28T13:55:35.614Z,52.30
2019-02-28T13:58:04.376Z,52.40
2019-02-28T14:00:34.076Z,52.20
2019-02-28T14:03:08.890Z,52.20
2019-02-28T14:05:40.770Z,52.10
2019-02-28T14:08:09.747Z,52.20
2019-02-28T14:10:35.490Z,52.30
2019-02-28T14:13:03.862Z,52.20
2019-02-28T14:15:40.955Z,52.10
2019-02-28T14:18:10.935Z,52.20
2019-02-28T14:20:39.197Z,51.90
2019-02-28T14:23:08.063Z,51.90
2019-02-28T14:25:39.825Z,51.80
2019-02-28T14:28:08.013Z,51.90
2019-02-28T14:30:36.294Z,51.80
2019-02-28T14:33:05.211Z,51.80
2019-02-28T14:35:35.524Z,51.60
2019-02-28T14:38:03.499Z,51.60
2019-02-28T14:40:31.802Z,51.60
2019-02-28T14:43:00.091Z,51.50
2019-02-28T14:45:34.303Z,51.40
2019-02-28T14:48:04.133Z,52.10
2019-02-28T14:50:34.179Z,51.20
2019-02-28T14:53:02.540Z,51.20
2019-02-28T14:55:32.606Z,51.20
2019-02-28T14:58:00.883Z,51.10
2019-02-28T15:00:35.336Z,51.00
2019-02-28T15:03:05.521Z,50.90
2019-02-28T15:05:40.308Z,50.90
2019-02-28T15:08:11.736Z,50.90
2019-02-28T15:10:38.611Z,50.90
2019-02-28T15:13:06.887Z,51.10
2019-02-28T15:15:36.267Z,51.10
2019-02-28T15:18:05.111Z,51.20
2019-02-28T15:20:33.432Z,51.20
2019-02-28T15:23:01.698Z,51.30
2019-02-28T15:25:30.673Z,51.30
2019-02-28T15:27:58.930Z,52.00
2019-02-28T15:30:40.830Z,51.40
2019-02-28T15:33:09.074Z,51.50
2019-02-28T15:35:37.310Z,51.60
2019-02-28T15:38:08.775Z,51.70
2019-02-28T15:40:40.836Z,51.80
2019-02-28T15:43:09.196Z,51.80
2019-02-28T15:45:37.480Z,51.80
2019-02-28T15:48:06.225Z,51.80
2019-02-28T15:50:34.459Z,51.90
2019-02-28T15:53:02.861Z,51.80
2019-02-28T15:55:31.118Z,51.80
2019-02-28T15:57:59.389Z,51.90
2019-02-28T16:00:34.561Z,51.80
2019-02-28T16:03:02.843Z,51.90
2019-02-28T16:05:31.102Z,51.90
2019-02-28T16:07:59.350Z,51.80
2019-02-28T16:10:31.806Z,52.00
2019-02-28T16:12:59.621Z,52.00
2019-02-28T16:15:27.855Z,51.90
2019-02-28T16:17:56.203Z,52.00
2019-02-28T16:20:25.062Z,51.90
2019-02-28T16:22:53.454Z,52.10
2019-02-28T16:25:24.558Z,52.20
2019-02-28T16:27:52.790Z,52.50
2019-02-28T16:30:21.098Z,52.70
2019-02-28T16:32:50.157Z,52.70
2019-02-28T16:35:18.550Z,52.90
2019-02-28T16:37:46.788Z,53.10
2019-02-28T16:40:27.199Z,53.10
2019-02-28T16:42:55.583Z,53.20
2019-02-28T16:45:43.048Z,53.10
2019-02-28T16:48:11.284Z,53.60
2019-02-28T16:50:39.532Z,53.50
2019-02-28T16:53:07.778Z,54.30
2019-02-28T16:55:36.015Z,53.60
2019-02-28T16:58:04.568Z,53.80
2019-02-28T17:00:33.236Z,53.70
2019-02-28T17:03:04.029Z,53.90
2019-02-28T17:05:31.662Z,53.90
2019-02-28T17:07:59.913Z,53.90
2019-02-28T17:10:33.005Z,54.00
2019-02-28T17:13:17.955Z,54.10
2019-02-28T17:15:47.843Z,54.10
2019-02-28T17:18:23.565Z,54.10
2019-02-28T17:20:51.888Z,54.20
2019-02-28T17:23:20.120Z,54.10
2019-02-28T17:25:48.379Z,54.30
2019-02-28T17:28:24.015Z,54.20
2019-02-28T17:31:11.514Z,54.40
2019-02-28T17:33:43.309Z,54.40
2019-02-28T17:36:11.668Z,54.40
2019-02-28T17:39:00.302Z,54.40
2019-02-28T17:41:37.927Z,54.50
2019-02-28T17:44:15.102Z,54.50
2019-02-28T17:46:46.539Z,54.70
2019-02-28T17:49:26.396Z,54.60
2019-02-28T17:51:58.551Z,54.70
2019-02-28T17:55:02.061Z,54.70
2019-02-28T17:57:52.356Z,54.70
2019-02-28T18:00:35.429Z,54.80
2019-02-28T18:03:22.069Z,54.60
2019-02-28T18:06:08.845Z,54.60
2019-02-28T18:09:04.684Z,54.70
2019-02-28T18:11:38.978Z,54.60
2019-02-28T18:14:22.554Z,54.90
2019-02-28T18:17:10.476Z,54.90
2019-02-28T18:20:15.366Z,54.90
2019-02-28T18:22:55.448Z,54.90
2019-02-28T18:25:30.070Z,54.80
2019-02-28T18:28:18.806Z,54.90
2019-02-28T18:31:08.989Z,54.90
2019-02-28T18:33:41.875Z,54.90
2019-02-28T18:36:14.620Z,55.00
2019-02-28T18:38:42.981Z,55.20
2019-02-28T18:41:11.419Z,55.20
2019-02-28T18:43:40.480Z,55.40
2019-02-28T18:46:08.853Z,55.30
2019-02-28T18:48:37.093Z,55.30
2019-02-28T18:51:05.866Z,55.30
2019-02-28T18:53:34.187Z,55.40
2019-02-28T18:56:05.295Z,55.90
2019-02-28T18:58:33.531Z,55.90
2019-02-28T19:01:12.751Z,56.50
2019-02-28T19:03:41.214Z,55.80
2019-02-28T19:06:09.453Z,56.10
2019-02-28T19:08:37.722Z,56.00
2019-02-28T19:11:06.307Z,56.10
2019-02-28T19:13:34.662Z,56.30
2019-02-28T19:16:03.031Z,56.40
2019-02-28T19:18:31.263Z,56.40
2019-02-28T19:20:59.496Z,56.40
2019-02-28T19:23:27.764Z,56.60
2019-02-28T19:25:55.994Z,56.60
2019-02-28T19:28:24.305Z,56.70
2019-02-28T19:30:52.859Z,56.80
2019-02-28T19:33:21.091Z,56.70
2019-02-28T19:35:49.328Z,56.70
2019-02-28T19:38:17.582Z,56.80
2019-02-28T19:40:45.826Z,56.90
2019-02-28T19:43:14.086Z,56.90
2019-02-28T19:45:45.951Z,57.10
2019-02-28T19:48:14.185Z,57.10
2019-02-28T19:50:42.506Z,57.10
2019-02-28T19:53:11.103Z,57.20
2019-02-28T19:55:39.339Z,57.20
2019-02-28T19:58:07.583Z,57.40
2019-02-28T20:00:37.909Z,57.40
2019-02-28T20:03:06.957Z,57.50
2019-02-28T20:05:35.191Z,57.40
2019-02-28T20:08:03.455Z,57.50
2019-02-28T20:10:31.757Z,57.50
2019-02-28T20:13:00.003Z,57.50
2019-02-28T20:15:29.919Z,58.40
2019-02-28T20:17:59.938Z,57.80
2019-02-28T20:20:39.323Z,57.60
2019-02-28T20:23:07.718Z,57.70
2019-02-28T20:25:35.959Z,57.70
2019-02-28T20:28:04.195Z,57.70
2019-02-28T20:30:32.533Z,57.90
2019-02-28T20:33:00.906Z,57.80
2019-02-28T20:35:30.476Z,58.00
2019-02-28T20:37:58.825Z,57.80
2019-02-28T20:40:37.369Z,57.90
2019-02-28T20:43:05.922Z,58.00
2019-02-28T20:45:34.541Z,58.00
2019-02-28T20:48:04.273Z,57.90
2019-02-28T20:50:46.255Z,58.10
2019-02-28T20:53:14.706Z,58.50
2019-02-28T20:55:42.964Z,58.10
2019-02-28T20:58:11.323Z,58.30
2019-02-28T21:00:40.646Z,58.30
2019-02-28T21:03:09.177Z,58.30
2019-02-28T21:05:37.433Z,58.50
2019-02-28T21:08:06.478Z,58.40
2019-02-28T21:10:34.714Z,59.20
2019-02-28T21:13:03.003Z,58.50
2019-02-28T21:15:31.239Z,58.40
2019-02-28T21:17:59.480Z,58.40
2019-02-28T21:20:28.073Z,58.50
2019-02-28T21:22:56.323Z,58.50
2019-02-28T21:25:24.630Z,58.60
2019-02-28T21:27:52.873Z,58.70
2019-02-28T21:30:25.192Z,58.70
2019-02-28T21:32:53.438Z,58.90
2019-02-28T21:35:23.587Z,58.70
2019-02-28T21:37:51.823Z,58.80
2019-02-28T21:40:21.006Z,58.70
2019-02-28T21:42:49.300Z,58.70
2019-02-28T21:45:25.261Z,58.70
2019-02-28T21:47:53.563Z,58.70
2019-02-28T21:50:22.007Z,58.70
2019-02-28T21:52:53.185Z,58.70
2019-02-28T21:55:21.419Z,58.60
2019-02-28T21:57:49.694Z,58.80
2019-02-28T22:00:28.989Z,58.90
2019-02-28T22:02:57.230Z,58.90
2019-02-28T22:05:25.483Z,59.00
2019-02-28T22:07:53.725Z,59.00
2019-02-28T22:10:21.983Z,59.20
2019-02-28T22:12:50.288Z,59.30
2019-02-28T22:15:22.631Z,59.50
2019-02-28T22:17:51.048Z,59.20
2019-02-28T22:20:19.399Z,59.10
2019-02-28T22:22:47.639Z,59.20
2019-02-28T22:25:16.525Z,59.40
2019-02-28T22:27:44.797Z,59.30
2019-02-28T22:30:34.949Z,59.40
2019-02-28T22:33:20.130Z,59.30
2019-02-28T22:35:58.929Z,59.30
2019-02-28T22:38:27.335Z,59.30
2019-02-28T22:40:55.641Z,59.40
2019-02-28T22:43:23.898Z,59.50
2019-02-28T22:45:52.123Z,59.50
2019-02-28T22:48:20.361Z,59.60
2019-02-28T22:50:48.874Z,59.50
2019-02-28T22:53:23.681Z,59.50
2019-02-28T22:56:00.332Z,59.70
2019-02-28T22:58:28.587Z,59.60
2019-02-28T23:01:01.161Z,59.70
2019-02-28T23:03:31.037Z,59.60
2019-02-28T23:05:59.799Z,59.60
2019-02-28T23:08:28.108Z,60.00
2019-02-28T23:10:56.361Z,59.90
2019-02-28T23:13:24.610Z,59.80
2019-02-28T23:15:52.837Z,59.80
2019-02-28T23:18:21.084Z,59.90
2019-02-28T23:20:49.358Z,59.90
2019-02-28T23:23:17.589Z,59.90
2019-02-28T23:25:45.838Z,60.10
2019-02-28T23:28:28.474Z,59.90
2019-02-28T23:31:08.979Z,59.90
2019-02-28T23:33:37.242Z,60.00
2019-02-28T23:36:06.123Z,60.80
2019-02-28T23:38:34.449Z,60.30
2019-02-28T23:41:03.530Z,60.10
2019-02-28T23:43:34.688Z,60.10
2019-02-28T23:46:02.926Z,60.30
2019-02-28T23:48:31.254Z,60.30
2019-02-28T23:50:59.496Z,60.30
2019-02-28T23:53:27.754Z,60.40
2019-02-28T23:55:56.112Z,60.40
2019-02-28T23:58:24.346Z,60.50
